Time;durP1;ratioP1;P1;durP2;ratioP2;P2;SDS_P1;SDS_P2;PMS_P1;PMS_P2;Temp;Humidity;BMP_temperature;BMP_pressure;BME280_temperature;BME280_humidity;BME280_pressure;Samples;Min_cycle;Max_cycle;Signal;HPM_P1;HPM_P2
2021/09/21 00:02:18;;;;;;;9.93;7.53;;;;;;;;;;5007764;28;20629;-75
2021/09/21 00:04:44;;;;;;;8.13;7.40;;;;;;;;;;5007367;28;20247;-75
2021/09/21 00:07:11;;;;;;;7.70;7.00;;;;;;;;;;5007425;28;20268;-75
2021/09/21 00:09:37;;;;;;;9.00;8.10;;;;;;;;;;5007735;28;20272;-75
2021/09/21 00:12:05;;;;;;;11.20;8.50;;;;;;;;;;5006678;28;20234;-75
2021/09/21 00:14:32;;;;;;;8.50;7.60;;;;;;;;;;5007365;28;20284;-75
2021/09/21 00:17:02;;;;;;;9.17;8.00;;;;;;;;;;5007738;28;20678;-75
2021/09/21 00:19:31;;;;;;;8.67;7.87;;;;;;;;;;5007430;28;20211;-75
2021/09/21 00:21:58;;;;;;;7.93;7.13;;;;;;;;;;5006764;28;20219;-75
2021/09/21 00:24:24;;;;;;;8.37;7.57;;;;;;;;;;5006849;28;20698;-75
2021/09/21 00:26:51;;;;;;;10.23;8.33;;;;;;;;;;5007090;28;20239;-75
2021/09/21 00:29:19;;;;;;;12.27;8.70;;;;;;;;;;5006610;28;20290;-75
2021/09/21 00:31:49;;;;;;;10.20;8.00;;;;;;;;;;5007596;28;20211;-75
2021/09/21 00:34:16;;;;;;;9.67;8.57;;;;;;;;;;5007457;28;20540;-75
2021/09/21 00:36:43;;;;;;;10.33;8.30;;;;;;;;;;5007058;28;20247;-75
2021/09/21 00:39:12;;;;;;;10.83;8.67;;;;;;;;;;5006735;28;20238;-75
2021/09/21 00:41:40;;;;;;;8.23;7.43;;;;;;;;;;5006675;28;20292;-75
2021/09/21 00:44:08;;;;;;;9.97;8.17;;;;;;;;;;5006310;28;20293;-75
2021/09/21 00:46:36;;;;;;;8.20;7.40;;;;;;;;;;5007024;28;20622;-75
2021/09/21 00:49:02;;;;;;;7.80;7.00;;;;;;;;;;5007506;28;20680;-75
2021/09/21 00:51:29;;;;;;;9.23;7.37;;;;;;;;;;5007302;28;20215;-75
2021/09/21 00:53:55;;;;;;;9.73;7.63;;;;;;;;;;5005503;28;20697;-75
2021/09/21 00:56:22;;;;;;;8.70;7.40;;;;;;;;;;5006730;28;20651;-75
2021/09/21 00:58:49;;;;;;;7.17;6.47;;;;;;;;;;5007000;28;20859;-75
2021/09/21 01:01:15;;;;;;;8.37;7.07;;;;;;;;;;5006953;28;20285;-75
2021/09/21 01:03:43;;;;;;;8.47;7.67;;;;;;;;;;5007245;28;20297;-75
2021/09/21 01:06:09;;;;;;;7.63;6.83;;;;;;;;;;5007019;28;20266;-75
2021/09/21 01:08:39;;;;;;;8.60;7.27;;;;;;;;;;5007061;28;21214;-75
2021/09/21 01:11:06;;;;;;;9.27;7.07;;;;;;;;;;5006758;28;20238;-75
2021/09/21 01:13:32;;;;;;;8.57;7.77;;;;;;;;;;5007186;28;20220;-75
2021/09/21 01:15:58;;;;;;;8.47;6.77;;;;;;;;;;5006494;28;20223;-75
2021/09/21 01:18:27;;;;;;;8.73;7.20;;;;;;;;;;5007029;28;20216;-75
2021/09/21 01:21:01;;;;;;;10.33;7.63;;;;;;;;;;5006708;28;20219;-75
2021/09/21 01:23:29;;;;;;;9.90;7.23;;;;;;;;;;5006650;28;20228;-76
2021/09/21 01:25:56;;;;;;;11.27;8.90;;;;;;;;;;5010483;28;20964;-76
2021/09/21 01:28:22;;;;;;;8.20;7.43;;;;;;;;;;5009557;28;20219;-76
2021/09/21 01:30:49;;;;;;;8.37;7.57;;;;;;;;;;5009448;28;20220;-75
2021/09/21 01:33:19;;;;;;;8.73;7.83;;;;;;;;;;5010298;28;20211;-75
2021/09/21 01:35:45;;;;;;;8.97;8.00;;;;;;;;;;5009561;28;20246;-75
2021/09/21 01:38:12;;;;;;;8.40;7.60;;;;;;;;;;5008813;28;21093;-75
2021/09/21 01:40:40;;;;;;;8.70;7.80;;;;;;;;;;5010368;28;20215;-75
2021/09/21 01:43:06;;;;;;;10.73;8.50;;;;;;;;;;5010023;28;20238;-75
2021/09/21 01:45:33;;;;;;;9.77;8.80;;;;;;;;;;5010738;28;20215;-75
2021/09/21 01:47:59;;;;;;;9.93;8.93;;;;;;;;;;5010449;28;20367;-75
2021/09/21 01:50:35;;;;;;;9.50;8.47;;;;;;;;;;5010533;28;20218;-75
2021/09/21 01:53:09;;;;;;;8.37;7.57;;;;;;;;;;5010073;28;20559;-75
2021/09/21 02:01:01;;;;;;;11.40;7.40;;;;;;;;;;5009279;28;20339;-75
2021/09/21 02:03:28;;;;;;;8.43;6.77;;;;;;;;;;5010179;28;20243;-75
2021/09/21 02:05:54;;;;;;;10.53;7.40;;;;;;;;;;5010075;28;20216;-75
2021/09/21 02:08:21;;;;;;;9.83;7.57;;;;;;;;;;5009811;28;20267;-75
2021/09/21 02:10:47;;;;;;;9.27;6.77;;;;;;;;;;5009469;28;20284;-75
2021/09/21 02:13:14;;;;;;;8.10;7.40;;;;;;;;;;5009033;28;20226;-76
2021/09/21 02:15:42;;;;;;;8.90;8.00;;;;;;;;;;5010029;28;20800;-75
2021/09/21 02:18:08;;;;;;;10.47;8.67;;;;;;;;;;5008941;28;20215;-75
2021/09/21 02:20:35;;;;;;;10.10;9.10;;;;;;;;;;5009940;28;20238;-75
2021/09/21 02:23:02;;;;;;;10.80;9.10;;;;;;;;;;5009054;28;20293;-75
2021/09/21 02:25:28;;;;;;;11.23;9.37;;;;;;;;;;5009728;28;20277;-75
2021/09/21 02:27:55;;;;;;;12.07;9.60;;;;;;;;;;5008944;28;20243;-75
2021/09/21 02:30:21;;;;;;;9.87;8.83;;;;;;;;;;5009046;28;20219;-76
2021/09/21 02:32:50;;;;;;;11.60;8.63;;;;;;;;;;5008377;28;20778;-76
2021/09/21 02:35:16;;;;;;;10.60;9.50;;;;;;;;;;5008269;28;20302;-75
2021/09/21 02:37:43;;;;;;;10.73;9.03;;;;;;;;;;5009378;28;20305;-75
2021/09/21 02:40:10;;;;;;;9.97;8.90;;;;;;;;;;5008422;28;20219;-75
2021/09/21 02:42:37;;;;;;;11.77;9.50;;;;;;;;;;5008635;28;20263;-75
2021/09/21 02:45:05;;;;;;;9.93;8.93;;;;;;;;;;5009282;28;20289;-75
2021/09/21 02:47:31;;;;;;;13.20;9.20;;;;;;;;;;5008849;28;20223;-75
2021/09/21 02:49:59;;;;;;;12.20;8.67;;;;;;;;;;5008533;28;20270;-75
2021/09/21 02:52:25;;;;;;;15.03;9.07;;;;;;;;;;5009196;28;20215;-75
2021/09/21 02:54:52;;;;;;;10.37;9.27;;;;;;;;;;5008572;28;20227;-75
2021/09/21 02:57:19;;;;;;;10.13;9.23;;;;;;;;;;5008203;28;20765;-75
2021/09/21 02:59:45;;;;;;;13.80;10.10;;;;;;;;;;5007931;28;20214;-75
2021/09/21 03:02:12;;;;;;;10.73;9.73;;;;;;;;;;5008037;28;20222;-75
2021/09/21 03:04:41;;;;;;;11.50;10.40;;;;;;;;;;5008844;28;20239;-75
2021/09/21 03:07:10;;;;;;;12.87;10.77;;;;;;;;;;5008211;28;20219;-76
2021/09/21 03:09:52;;;;;;;12.10;10.30;;;;;;;;;;5008890;28;20882;-75
2021/09/21 03:12:27;;;;;;;12.67;11.37;;;;;;;;;;5008827;28;20231;-75
2021/09/21 03:17:45;;;;;;;11.67;10.47;;;;;;;;;;4988126;28;20226;-75
2021/09/21 03:20:11;;;;;;;11.87;10.67;;;;;;;;;;5007992;28;20222;-75
2021/09/21 03:22:39;;;;;;;12.73;11.43;;;;;;;;;;5007821;28;20212;-75
2021/09/21 03:25:08;;;;;;;12.70;11.40;;;;;;;;;;5007706;28;20682;-75
2021/09/21 03:27:35;;;;;;;13.20;11.90;;;;;;;;;;5007715;28;20637;-75
2021/09/21 03:30:01;;;;;;;16.27;11.23;;;;;;;;;;5007555;28;20215;-75
2021/09/21 03:32:28;;;;;;;12.40;11.17;;;;;;;;;;5008192;28;20222;-75
2021/09/21 03:34:54;;;;;;;13.00;10.67;;;;;;;;;;5008058;28;20706;-75
2021/09/21 03:37:20;;;;;;;12.80;10.70;;;;;;;;;;5008124;28;20243;-75
2021/09/21 03:39:48;;;;;;;13.00;10.90;;;;;;;;;;5007167;28;20272;-75
2021/09/21 03:42:15;;;;;;;14.20;10.67;;;;;;;;;;5007573;28;20286;-75
2021/09/21 03:44:42;;;;;;;14.73;11.87;;;;;;;;;;5007509;28;20681;-75
2021/09/21 03:47:08;;;;;;;13.40;12.10;;;;;;;;;;5007540;28;20222;-75
2021/09/21 03:49:35;;;;;;;12.90;11.60;;;;;;;;;;5007857;28;20839;-75
2021/09/21 03:52:01;;;;;;;13.60;12.20;;;;;;;;;;5007586;28;20589;-75
2021/09/21 03:54:28;;;;;;;14.03;12.60;;;;;;;;;;5007970;28;20222;-75
2021/09/21 03:56:55;;;;;;;16.30;12.97;;;;;;;;;;5007799;28;20292;-75
2021/09/21 03:59:22;;;;;;;14.37;12.90;;;;;;;;;;5007188;28;20634;-75
2021/09/21 04:01:49;;;;;;;15.20;13.63;;;;;;;;;;5007721;28;20210;-75
2021/09/21 04:04:15;;;;;;;15.07;12.87;;;;;;;;;;5005986;28;20889;-75
2021/09/21 04:06:42;;;;;;;15.77;14.17;;;;;;;;;;5008039;28;20223;-75
2021/09/21 04:09:08;;;;;;;15.17;13.67;;;;;;;;;;5007011;28;20662;-75
2021/09/21 04:11:35;;;;;;;15.53;13.93;;;;;;;;;;5007625;28;20231;-75
2021/09/21 04:14:03;;;;;;;16.10;13.50;;;;;;;;;;5006509;28;20671;-75
2021/09/21 04:16:30;;;;;;;16.70;13.17;;;;;;;;;;5006410;28;20613;-75
2021/09/21 04:18:57;;;;;;;17.03;14.40;;;;;;;;;;5006458;28;20254;-75
2021/09/21 04:21:23;;;;;;;17.30;14.33;;;;;;;;;;5006545;28;20214;-75
2021/09/21 04:23:50;;;;;;;15.20;13.63;;;;;;;;;;5006135;28;20851;-75
2021/09/21 04:26:17;;;;;;;16.83;14.23;;;;;;;;;;5005992;28;20293;-75
2021/09/21 04:28:45;;;;;;;16.10;13.60;;;;;;;;;;5006936;28;20214;-75
2021/09/21 04:31:16;;;;;;;14.63;12.80;;;;;;;;;;5007329;28;20257;-74
2021/09/21 04:33:43;;;;;;;15.67;12.83;;;;;;;;;;5006714;28;20225;-74
2021/09/21 04:36:11;;;;;;;16.20;12.60;;;;;;;;;;5006732;28;20886;-74
2021/09/21 04:38:38;;;;;;;14.07;12.13;;;;;;;;;;5006503;28;20221;-74
2021/09/21 04:41:05;;;;;;;15.07;12.80;;;;;;;;;;5007024;28;20268;-74
2021/09/21 04:43:35;;;;;;;13.20;12.00;;;;;;;;;;5007417;28;20225;-74
2021/09/21 04:46:02;;;;;;;18.30;12.10;;;;;;;;;;5006841;28;20228;-74
2021/09/21 04:48:30;;;;;;;14.23;11.93;;;;;;;;;;5007358;28;21042;-74
2021/09/21 04:50:56;;;;;;;14.10;11.70;;;;;;;;;;5006800;28;20222;-74
2021/09/21 04:53:23;;;;;;;13.33;11.93;;;;;;;;;;5007230;28;20229;-74
2021/09/21 04:55:49;;;;;;;16.00;12.73;;;;;;;;;;5006829;28;20684;-74
2021/09/21 04:58:15;;;;;;;18.13;13.17;;;;;;;;;;5006377;28;20227;-74
2021/09/21 05:00:42;;;;;;;19.27;12.53;;;;;;;;;;5010114;28;20550;-73
2021/09/21 05:03:08;;;;;;;19.70;12.10;;;;;;;;;;5010706;28;20268;-73
2021/09/21 05:05:36;;;;;;;15.83;11.47;;;;;;;;;;5009949;28;20242;-73
2021/09/21 05:08:03;;;;;;;19.60;11.53;;;;;;;;;;5009749;28;20218;-73
2021/09/21 05:10:31;;;;;;;18.03;11.67;;;;;;;;;;5009163;28;20284;-74
2021/09/21 05:12:57;;;;;;;19.87;11.30;;;;;;;;;;5009009;28;21150;-74
2021/09/21 05:15:24;;;;;;;14.47;10.47;;;;;;;;;;5009007;28;20245;-74
2021/09/21 05:17:50;;;;;;;18.30;11.00;;;;;;;;;;5009389;28;20653;-74
2021/09/21 05:20:17;;;;;;;17.10;11.33;;;;;;;;;;5009096;28;20238;-74
2021/09/21 05:22:50;;;;;;;15.57;11.03;;;;;;;;;;5009668;28;20212;-74
2021/09/21 05:25:17;;;;;;;28.60;11.93;;;;;;;;;;5008888;28;20219;-74
2021/09/21 05:27:43;;;;;;;18.57;10.13;;;;;;;;;;5009126;28;20227;-74
2021/09/21 05:30:12;;;;;;;13.37;10.27;;;;;;;;;;5009009;28;20292;-74
2021/09/21 05:32:38;;;;;;;39.63;12.83;;;;;;;;;;5009341;28;20616;-74
2021/09/21 05:35:06;;;;;;;94.47;19.20;;;;;;;;;;5009500;28;20788;-74
2021/09/21 05:37:32;;;;;;;43.80;13.13;;;;;;;;;;5007778;28;20722;-74
2021/09/21 05:40:00;;;;;;;29.07;11.50;;;;;;;;;;5008592;28;20211;-74
2021/09/21 05:42:27;;;;;;;16.27;10.50;;;;;;;;;;5009035;28;20281;-74
2021/09/21 05:44:53;;;;;;;21.90;11.20;;;;;;;;;;5008443;28;20709;-74
2021/09/21 05:47:20;;;;;;;14.87;10.63;;;;;;;;;;5008722;28;20216;-73
2021/09/21 05:49:46;;;;;;;16.23;10.00;;;;;;;;;;5009446;28;20219;-73
2021/09/21 05:52:13;;;;;;;24.33;9.97;;;;;;;;;;5008636;28;20285;-73
2021/09/21 05:54:39;;;;;;;72.43;13.90;;;;;;;;;;5008710;28;21106;-74
2021/09/21 05:57:07;;;;;;;19.87;11.17;;;;;;;;;;5008820;28;20246;-74
2021/09/21 05:59:33;;;;;;;29.37;13.30;;;;;;;;;;5008591;28;20628;-74
2021/09/21 06:02:00;;;;;;;21.40;11.63;;;;;;;;;;5007133;28;20720;-74
2021/09/21 06:04:26;;;;;;;16.77;11.70;;;;;;;;;;5009482;28;20243;-74
2021/09/21 06:06:52;;;;;;;15.47;11.10;;;;;;;;;;5006640;28;20223;-74
2021/09/21 06:09:19;;;;;;;14.77;11.87;;;;;;;;;;5007057;28;20222;-74
2021/09/21 06:11:45;;;;;;;12.73;11.43;;;;;;;;;;5006102;28;20309;-74
2021/09/21 06:14:14;;;;;;;32.50;12.60;;;;;;;;;;5006004;28;20254;-74
2021/09/21 06:16:40;;;;;;;52.57;13.67;;;;;;;;;;5007493;28;20234;-74
2021/09/21 06:19:06;;;;;;;17.20;11.53;;;;;;;;;;5007513;28;20691;-74
2021/09/21 06:21:33;;;;;;;13.07;11.10;;;;;;;;;;5007492;28;20290;-74
2021/09/21 06:23:59;;;;;;;13.50;11.27;;;;;;;;;;5006476;28;20216;-74
2021/09/21 06:26:26;;;;;;;14.57;12.13;;;;;;;;;;5006621;28;20238;-74
2021/09/21 06:28:52;;;;;;;14.47;11.97;;;;;;;;;;5007107;28;20221;-74
2021/09/21 06:31:20;;;;;;;27.50;12.17;;;;;;;;;;5007243;28;20989;-74
2021/09/21 06:33:46;;;;;;;13.07;11.77;;;;;;;;;;5006756;28;20592;-74
2021/09/21 06:36:13;;;;;;;12.97;11.20;;;;;;;;;;5006273;28;20250;-74
2021/09/21 06:38:40;;;;;;;15.13;11.70;;;;;;;;;;5006371;28;20227;-74
2021/09/21 06:41:06;;;;;;;13.43;11.83;;;;;;;;;;5007008;28;20644;-74
2021/09/21 06:43:34;;;;;;;19.60;12.03;;;;;;;;;;5006530;28;20230;-74
2021/09/21 06:46:00;;;;;;;12.97;10.97;;;;;;;;;;5006983;28;20239;-74
2021/09/21 06:48:28;;;;;;;15.60;12.40;;;;;;;;;;5006517;28;20810;-74
2021/09/21 06:50:55;;;;;;;13.23;11.20;;;;;;;;;;5006241;28;20278;-74
2021/09/21 06:53:21;;;;;;;18.03;12.07;;;;;;;;;;5006356;28;20223;-76
2021/09/21 06:55:48;;;;;;;12.83;11.30;;;;;;;;;;5006980;28;20601;-74
2021/09/21 06:58:14;;;;;;;13.23;10.37;;;;;;;;;;5006027;28;20629;-74
2021/09/21 07:00:43;;;;;;;11.47;10.27;;;;;;;;;;5006418;28;20215;-74
2021/09/21 07:03:09;;;;;;;15.27;10.10;;;;;;;;;;5005856;28;20211;-74
2021/09/21 07:05:37;;;;;;;11.67;9.87;;;;;;;;;;5006429;28;20232;-74
2021/09/21 07:08:04;;;;;;;11.80;9.23;;;;;;;;;;5006162;28;20270;-75
2021/09/21 07:10:31;;;;;;;11.43;8.87;;;;;;;;;;5006410;28;20235;-75
2021/09/21 07:12:58;;;;;;;10.63;8.97;;;;;;;;;;5006671;28;20228;-74
2021/09/21 07:15:25;;;;;;;12.93;8.60;;;;;;;;;;5005867;28;20254;-74
2021/09/21 07:17:52;;;;;;;21.00;9.23;;;;;;;;;;5006330;28;20635;-75
2021/09/21 07:20:19;;;;;;;11.97;8.63;;;;;;;;;;5006170;28;20248;-75
2021/09/21 07:22:47;;;;;;;11.23;8.10;;;;;;;;;;5005553;28;20575;-75
2021/09/21 07:25:13;;;;;;;10.03;8.40;;;;;;;;;;5006203;28;20621;-75
2021/09/21 07:27:40;;;;;;;13.10;8.93;;;;;;;;;;5005606;28;20235;-75
2021/09/21 07:30:08;;;;;;;18.30;9.50;;;;;;;;;;5005929;28;20274;-75
2021/09/21 07:32:34;;;;;;;12.63;8.70;;;;;;;;;;5005670;28;20215;-74
2021/09/21 07:35:01;;;;;;;9.07;7.90;;;;;;;;;;5005241;28;20717;-74
2021/09/21 07:37:27;;;;;;;9.13;7.67;;;;;;;;;;5004561;28;20257;-74
2021/09/21 07:39:55;;;;;;;10.23;7.90;;;;;;;;;;5005182;28;20223;-74
2021/09/21 07:42:22;;;;;;;8.93;8.03;;;;;;;;;;5004220;28;20335;-74
2021/09/21 07:44:49;;;;;;;11.17;7.70;;;;;;;;;;5005187;28;20242;-74
2021/09/21 07:47:16;;;;;;;8.73;7.83;;;;;;;;;;5004376;28;20215;-74
2021/09/21 07:49:43;;;;;;;8.93;8.07;;;;;;;;;;5005372;28;20246;-74
2021/09/21 07:52:09;;;;;;;8.73;7.83;;;;;;;;;;5004615;28;20297;-74
2021/09/21 07:54:36;;;;;;;24.40;8.67;;;;;;;;;;5005616;28;20641;-74
2021/09/21 07:57:04;;;;;;;8.93;7.70;;;;;;;;;;5005588;28;20235;-74
2021/09/21 07:59:30;;;;;;;9.83;7.67;;;;;;;;;;5004079;28;20667;-74
2021/09/21 08:01:57;;;;;;;11.53;7.60;;;;;;;;;;5004550;28;20310;-74
2021/09/21 08:04:23;;;;;;;15.43;7.73;;;;;;;;;;5003173;28;20213;-74
2021/09/21 08:06:50;;;;;;;12.27;7.30;;;;;;;;;;5006341;28;20224;-74
2021/09/21 08:09:16;;;;;;;7.87;6.90;;;;;;;;;;5003943;28;20788;-74
2021/09/21 08:11:43;;;;;;;11.27;7.00;;;;;;;;;;5004062;28;20236;-74
2021/09/21 08:14:11;;;;;;;14.67;7.70;;;;;;;;;;5004577;28;20216;-74
2021/09/21 08:16:38;;;;;;;15.63;8.10;;;;;;;;;;5004659;28;20223;-74
2021/09/21 08:19:05;;;;;;;11.10;6.90;;;;;;;;;;5004812;28;20761;-74
2021/09/21 08:21:31;;;;;;;10.73;7.17;;;;;;;;;;5004333;28;20226;-74
2021/09/21 08:23:58;;;;;;;7.97;6.77;;;;;;;;;;5004607;28;20216;-74
2021/09/21 08:26:25;;;;;;;9.17;7.13;;;;;;;;;;5003990;28;20298;-74
2021/09/21 08:28:51;;;;;;;7.50;6.77;;;;;;;;;;5004071;28;20662;-73
2021/09/21 08:31:19;;;;;;;6.27;5.00;;;;;;;;;;5003321;28;20215;-74
2021/09/21 08:33:46;;;;;;;8.67;6.17;;;;;;;;;;5003432;28;20220;-74
2021/09/21 08:36:12;;;;;;;9.03;5.10;;;;;;;;;;5003863;28;20240;-77
2021/09/21 08:38:39;;;;;;;7.80;5.67;;;;;;;;;;5004926;28;20318;-76
2021/09/21 08:41:06;;;;;;;7.13;5.30;;;;;;;;;;5004553;28;20766;-75
2021/09/21 08:43:32;;;;;;;7.40;5.27;;;;;;;;;;5003886;28;20958;-75
2021/09/21 08:45:59;;;;;;;14.73;5.60;;;;;;;;;;5004146;28;20309;-76
2021/09/21 08:48:27;;;;;;;12.27;5.60;;;;;;;;;;5005048;28;20203;-77
2021/09/21 08:50:54;;;;;;;6.27;5.27;;;;;;;;;;5004275;28;20224;-76
2021/09/21 08:53:20;;;;;;;20.70;6.73;;;;;;;;;;5005270;28;20212;-77
2021/09/21 08:55:47;;;;;;;6.40;5.17;;;;;;;;;;5004647;28;20207;-77
2021/09/21 08:58:14;;;;;;;7.17;4.90;;;;;;;;;;5005175;28;20213;-77
2021/09/21 09:00:40;;;;;;;6.57;4.93;;;;;;;;;;5005027;28;20307;-77
2021/09/21 09:03:08;;;;;;;6.30;5.10;;;;;;;;;;5006122;28;20212;-77
2021/09/21 09:05:47;;;;;;;5.37;4.37;;;;;;;;;;5006214;28;20602;-77
2021/09/21 09:08:14;;;;;;;7.43;4.70;;;;;;;;;;5005025;28;20208;-77
2021/09/21 09:10:41;;;;;;;5.23;4.57;;;;;;;;;;5004134;28;20213;-77
2021/09/21 09:13:18;;;;;;;5.40;4.90;;;;;;;;;;5005334;28;20216;-77
2021/09/21 09:15:53;;;;;;;5.40;4.30;;;;;;;;;;5005756;28;20250;-74
2021/09/21 09:18:24;;;;;;;5.77;4.60;;;;;;;;;;5005541;28;20536;-74
2021/09/21 09:20:52;;;;;;;6.47;4.27;;;;;;;;;;5005624;28;21216;-74
2021/09/21 09:23:19;;;;;;;5.00;4.17;;;;;;;;;;5004731;28;20329;-74
2021/09/21 09:25:47;;;;;;;7.07;4.40;;;;;;;;;;5006097;28;20248;-74
2021/09/21 09:28:15;;;;;;;5.67;4.20;;;;;;;;;;5005875;28;20227;-74
2021/09/21 09:30:43;;;;;;;4.23;3.83;;;;;;;;;;5006288;28;20309;-74
2021/09/21 09:33:09;;;;;;;5.27;3.97;;;;;;;;;;5004716;28;20213;-77
2021/09/21 09:35:37;;;;;;;4.60;4.07;;;;;;;;;;5005508;28;20279;-76
2021/09/21 09:38:08;;;;;;;5.93;4.37;;;;;;;;;;5005228;28;20222;-77
2021/09/21 09:40:40;;;;;;;5.50;4.90;;;;;;;;;;5005727;28;20223;-74
2021/09/21 09:43:07;;;;;;;7.43;4.70;;;;;;;;;;5005760;28;20239;-74
2021/09/21 09:45:36;;;;;;;6.40;4.23;;;;;;;;;;5006174;28;20307;-74
2021/09/21 09:48:04;;;;;;;6.13;3.80;;;;;;;;;;5008718;28;20257;-74
2021/09/21 09:50:32;;;;;;;7.47;4.40;;;;;;;;;;5009482;28;20214;-74
2021/09/21 09:53:14;;;;;;;4.47;4.07;;;;;;;;;;5008897;28;20651;-74
2021/09/21 09:55:42;;;;;;;7.87;4.80;;;;;;;;;;5009116;28;20223;-74
2021/09/21 09:58:09;;;;;;;5.37;4.17;;;;;;;;;;5009053;28;20245;-74
2021/09/21 10:00:36;;;;;;;5.30;4.50;;;;;;;;;;5009373;28;20232;-74
2021/09/21 10:03:04;;;;;;;5.03;4.57;;;;;;;;;;5009334;28;20353;-74
2021/09/21 10:05:31;;;;;;;5.13;4.60;;;;;;;;;;5010374;28;20296;-73
2021/09/21 10:07:58;;;;;;;5.80;4.83;;;;;;;;;;5008025;28;20576;-74
2021/09/21 10:10:26;;;;;;;5.40;4.30;;;;;;;;;;5009062;28;20337;-74
2021/09/21 10:12:53;;;;;;;6.77;4.17;;;;;;;;;;5008175;28;20228;-73
2021/09/21 10:15:20;;;;;;;6.70;4.13;;;;;;;;;;5008610;28;20220;-74
2021/09/21 10:17:53;;;;;;;3.93;3.57;;;;;;;;;;5008801;28;20331;-73
2021/09/21 10:20:20;;;;;;;7.00;4.10;;;;;;;;;;5009265;28;20211;-73
2021/09/21 10:22:52;;;;;;;5.10;4.37;;;;;;;;;;5008862;28;20212;-74
2021/09/21 10:25:18;;;;;;;6.17;3.73;;;;;;;;;;5008592;28;20588;-73
2021/09/21 10:27:52;;;;;;;17.83;4.10;;;;;;;;;;5008619;28;20236;-74
2021/09/21 10:30:22;;;;;;;4.80;3.30;;;;;;;;;;5007992;28;20214;-74
2021/09/21 10:32:50;;;;;;;44.60;4.83;;;;;;;;;;5008653;28;20655;-74
2021/09/21 10:35:19;;;;;;;10.03;3.97;;;;;;;;;;5009202;28;20650;-73
2021/09/21 10:37:56;;;;;;;2.73;2.40;;;;;;;;;;5008315;28;20625;-74
2021/09/21 10:40:22;;;;;;;10.47;3.17;;;;;;;;;;5008185;28;20278;-74
2021/09/21 10:42:53;;;;;;;3.10;2.50;;;;;;;;;;5008051;28;20253;-74
2021/09/21 10:45:24;;;;;;;3.93;2.90;;;;;;;;;;5008245;28;20219;-74
2021/09/21 10:48:00;;;;;;;4.10;2.90;;;;;;;;;;5008218;28;20326;-74
2021/09/21 10:50:27;;;;;;;6.03;3.60;;;;;;;;;;5008365;28;20578;-74
2021/09/21 10:53:02;;;;;;;43.73;7.43;;;;;;;;;;5007851;28;20215;-74
2021/09/21 10:55:34;;;;;;;4.57;3.00;;;;;;;;;;5007121;28;20210;-74
2021/09/21 10:58:04;;;;;;;10.63;3.93;;;;;;;;;;5005843;28;20227;-74
2021/09/21 11:00:33;;;;;;;7.13;3.40;;;;;;;;;;5007148;28;20238;-74
2021/09/21 11:03:00;;;;;;;3.63;2.70;;;;;;;;;;5006221;28;20290;-73
2021/09/21 11:05:27;;;;;;;4.83;4.00;;;;;;;;;;5006852;28;20215;-74
2021/09/21 11:07:56;;;;;;;4.53;3.60;;;;;;;;;;5006336;28;20220;-74
2021/09/21 11:10:26;;;;;;;6.80;4.60;;;;;;;;;;5006245;28;20226;-74
2021/09/21 11:12:53;;;;;;;5.67;4.27;;;;;;;;;;5006435;28;20233;-77
2021/09/21 11:15:24;;;;;;;5.20;4.20;;;;;;;;;;5005969;28;20216;-76
2021/09/21 11:18:00;;;;;;;7.50;3.90;;;;;;;;;;5006530;28;20207;-77
2021/09/21 11:20:27;;;;;;;7.17;3.87;;;;;;;;;;5006759;28;20242;-77
2021/09/21 11:22:53;;;;;;;6.70;3.60;;;;;;;;;;5006417;28;20220;-77
2021/09/21 11:25:21;;;;;;;7.73;3.07;;;;;;;;;;5006709;28;20218;-77
2021/09/21 11:27:48;;;;;;;5.53;4.00;;;;;;;;;;5006017;28;20235;-76
2021/09/21 11:30:17;;;;;;;3.90;3.53;;;;;;;;;;5005619;28;20219;-77
2021/09/21 11:32:46;;;;;;;4.40;4.00;;;;;;;;;;5006153;28;20800;-76
2021/09/21 11:35:15;;;;;;;5.80;4.43;;;;;;;;;;5005234;28;20235;-75
2021/09/21 11:37:43;;;;;;;6.70;3.97;;;;;;;;;;5005655;28;20252;-74
2021/09/21 11:40:10;;;;;;;6.60;3.47;;;;;;;;;;5004874;28;20223;-74
2021/09/21 11:42:37;;;;;;;5.30;3.73;;;;;;;;;;5004171;28;20292;-74
2021/09/21 11:45:07;;;;;;;5.47;3.93;;;;;;;;;;5007041;28;20227;-74
2021/09/21 11:47:41;;;;;;;5.23;3.73;;;;;;;;;;5004982;28;20242;-74
2021/09/21 11:50:12;;;;;;;5.40;3.90;;;;;;;;;;5004572;28;20219;-74
2021/09/21 11:52:40;;;;;;;4.40;3.80;;;;;;;;;;5004905;28;20204;-74
2021/09/21 11:55:11;;;;;;;9.23;4.07;;;;;;;;;;5004931;28;20235;-75
2021/09/21 11:57:37;;;;;;;4.33;3.43;;;;;;;;;;5005230;28;20275;-75
2021/09/21 12:00:06;;;;;;;5.40;3.57;;;;;;;;;;5004681;28;20257;-74
2021/09/21 12:02:33;;;;;;;5.87;4.27;;;;;;;;;;5004525;28;20315;-75
2021/09/21 12:04:59;;;;;;;4.93;4.00;;;;;;;;;;5004780;28;20762;-74
2021/09/21 12:07:27;;;;;;;4.53;4.00;;;;;;;;;;5003347;28;20263;-77
2021/09/21 12:09:54;;;;;;;5.53;3.87;;;;;;;;;;5004918;28;20281;-74
2021/09/21 12:12:22;;;;;;;3.50;3.20;;;;;;;;;;5003219;28;20230;-74
2021/09/21 12:14:57;;;;;;;6.53;3.80;;;;;;;;;;5003071;28;20210;-74
2021/09/21 12:17:24;;;;;;;6.80;3.80;;;;;;;;;;5002428;28;20306;-74
2021/09/21 12:19:57;;;;;;;5.60;3.70;;;;;;;;;;5005417;28;20219;-75
2021/09/21 12:22:23;;;;;;;6.43;3.90;;;;;;;;;;5005510;28;20289;-74
2021/09/21 12:24:52;;;;;;;5.17;3.40;;;;;;;;;;5005425;28;20221;-74
2021/09/21 12:27:23;;;;;;;8.33;3.80;;;;;;;;;;5005271;28;20239;-74
2021/09/21 12:29:50;;;;;;;7.13;3.33;;;;;;;;;;5004822;28;20211;-77
2021/09/21 12:32:16;;;;;;;4.83;3.30;;;;;;;;;;5005677;28;20624;-77
2021/09/21 12:34:43;;;;;;;4.33;3.40;;;;;;;;;;5003953;28;20220;-77
2021/09/21 12:37:10;;;;;;;4.30;3.67;;;;;;;;;;5005396;28;20249;-76
2021/09/21 12:39:37;;;;;;;17.37;4.23;;;;;;;;;;5002692;28;20212;-75
2021/09/21 12:42:06;;;;;;;4.07;3.37;;;;;;;;;;5003363;28;20346;-75
2021/09/21 12:44:32;;;;;;;4.47;4.00;;;;;;;;;;5005205;28;20696;-74
2021/09/21 12:46:59;;;;;;;7.87;3.97;;;;;;;;;;5004612;28;20231;-75
2021/09/21 12:49:29;;;;;;;29.90;4.80;;;;;;;;;;5005499;28;20685;-75
2021/09/21 12:51:58;;;;;;;5.40;4.90;;;;;;;;;;5004550;28;20220;-74
2021/09/21 12:54:27;;;;;;;7.47;4.67;;;;;;;;;;5005178;28;20222;-74
2021/09/21 12:56:57;;;;;;;5.70;4.47;;;;;;;;;;5004203;28;20232;-74
2021/09/21 12:59:27;;;;;;;6.93;5.90;;;;;;;;;;5005513;28;20211;-74
2021/09/21 13:01:54;;;;;;;8.17;5.43;;;;;;;;;;5004168;28;20223;-73
2021/09/21 13:04:21;;;;;;;9.70;5.83;;;;;;;;;;5005373;28;20212;-74
2021/09/21 13:06:49;;;;;;;6.93;5.07;;;;;;;;;;5004653;28;20278;-74
2021/09/21 13:09:16;;;;;;;8.70;5.30;;;;;;;;;;5004936;28;20257;-76
2021/09/21 13:11:43;;;;;;;14.80;6.10;;;;;;;;;;5004268;28;20235;-76
2021/09/21 13:14:09;;;;;;;6.27;5.60;;;;;;;;;;5004657;28;20234;-76
2021/09/21 13:16:39;;;;;;;7.20;6.03;;;;;;;;;;5004637;28;20270;-75
2021/09/21 13:19:05;;;;;;;9.27;6.43;;;;;;;;;;5004263;28;20590;-75
2021/09/21 13:21:32;;;;;;;8.73;5.80;;;;;;;;;;5008725;28;20218;-75
2021/09/21 13:23:58;;;;;;;17.27;6.70;;;;;;;;;;5008405;28;20226;-74
2021/09/21 13:26:25;;;;;;;9.40;6.30;;;;;;;;;;5008553;28;20231;-73
2021/09/21 13:28:52;;;;;;;10.03;5.90;;;;;;;;;;5008546;28;20222;-74
2021/09/21 13:31:19;;;;;;;10.17;5.83;;;;;;;;;;5008306;28;20219;-74
2021/09/21 13:33:48;;;;;;;9.50;5.97;;;;;;;;;;5007277;28;20720;-74
2021/09/21 13:36:17;;;;;;;10.50;6.27;;;;;;;;;;5007480;28;20235;-74
2021/09/21 13:38:43;;;;;;;9.33;6.50;;;;;;;;;;5007428;28;20240;-73
2021/09/21 13:41:10;;;;;;;8.07;6.90;;;;;;;;;;5008531;28;20239;-74
2021/09/21 13:43:39;;;;;;;8.60;6.17;;;;;;;;;;5008475;28;20700;-73
2021/09/21 13:46:06;;;;;;;11.37;5.60;;;;;;;;;;5007452;28;20647;-74
2021/09/21 13:48:32;;;;;;;24.90;7.13;;;;;;;;;;5008171;28;20236;-75
2021/09/21 13:51:00;;;;;;;10.43;5.83;;;;;;;;;;5008087;28;20225;-73
2021/09/21 13:53:26;;;;;;;10.80;6.10;;;;;;;;;;5008174;28;20666;-74
2021/09/21 13:55:53;;;;;;;6.80;6.07;;;;;;;;;;5007411;28;20293;-74
2021/09/21 13:58:19;;;;;;;6.83;5.67;;;;;;;;;;5007801;28;20218;-74
2021/09/21 14:00:46;;;;;;;10.73;6.40;;;;;;;;;;5007722;28;20361;-74
2021/09/21 14:03:13;;;;;;;7.83;5.57;;;;;;;;;;5007122;28;20257;-74
2021/09/21 14:05:40;;;;;;;6.57;5.97;;;;;;;;;;5008041;28;20233;-73
2021/09/21 14:08:07;;;;;;;8.20;5.87;;;;;;;;;;5007427;28;20243;-74
2021/09/21 14:10:34;;;;;;;6.07;5.27;;;;;;;;;;5007793;28;20224;-73
2021/09/21 14:13:01;;;;;;;7.60;5.70;;;;;;;;;;5007046;28;20228;-73
2021/09/21 14:15:28;;;;;;;8.23;5.73;;;;;;;;;;5007452;28;20211;-73
2021/09/21 14:17:56;;;;;;;8.10;5.33;;;;;;;;;;5006507;28;20216;-73
2021/09/21 14:20:22;;;;;;;7.77;5.47;;;;;;;;;;5007873;28;20313;-73
2021/09/21 14:22:51;;;;;;;6.70;5.67;;;;;;;;;;5006943;28;20747;-74
2021/09/21 14:25:20;;;;;;;6.87;5.80;;;;;;;;;;5006850;28;20251;-73
2021/09/21 14:27:46;;;;;;;6.50;5.57;;;;;;;;;;5006176;28;20298;-74
2021/09/21 14:30:16;;;;;;;6.67;5.20;;;;;;;;;;5007280;28;20841;-73
2021/09/21 14:32:44;;;;;;;12.07;6.57;;;;;;;;;;5005595;28;20207;-73
2021/09/21 14:35:13;;;;;;;6.17;5.57;;;;;;;;;;5006905;28;20215;-73
2021/09/21 14:37:40;;;;;;;13.10;5.80;;;;;;;;;;5007131;28;20929;-73
2021/09/21 14:40:08;;;;;;;7.90;5.17;;;;;;;;;;5005932;28;20218;-73
2021/09/21 14:42:36;;;;;;;8.67;5.47;;;;;;;;;;5007567;28;20706;-73
2021/09/21 14:45:03;;;;;;;7.17;5.30;;;;;;;;;;5006265;28;20264;-74